Terminal Aerodrome Forecast
Issued by NWS

Home | Current Version | Previous Version | Text Only | Print | Product List | Glossary On
Versions: 1 2 3 4 5 6 7 8 9 10 11 12 13 14 15 16 17 18 19 20 21 22 23 24
000
FTUS45 KREV 300531
TAFCXP
TAF
KCXP 300531Z 3006/3106 22010G15KT P6SM BKN060 BKN090
     FM301000 20015G25KT P6SM VCSH SCT040 BKN070 WS020/30045KT
     FM301300 29022G32KT P6SM -SHRA BKN040 OVC070
     FM301700 32022G30KT P6SM VCSH BKN040 BKN060
     FM310200 35015KT P6SM BKN040=

USA.gov is the U.S. government's official web portal to all federal, state and local government web resources and services.